Cabool, MO (65689)

11:17 AM CDT on August 29, 2015 (GMT -0500)
Country | | Change Station
CLOSE
Current Station
Personal Weather Station
Location: Elk Creek, MO
Elevation: 1332 ft
Nearby Weather Stations

Elev 1332 ft 37.15 °N, 91.91 °W | Updated 4 minutes ago

Rain
Rain
66.2 °F
Feels Like 66.2 °F
N
0.0
Wind Variable Wind from SSE
Gusts 6.0 mph

Today
High -- | Low -- °F
--% Chance of Precip.
Yesterday
High -- | Low -- °F
Precip. -- in
6:36 AM 7:41 PM
Full, 100% visible
Pressure 30.08 in
Visibility 6.0 miles
Clouds Scattered Clouds 7500 ft
Overcast 10000 ft
Dew Point 62 °F
Humidity 87%
Rainfall 0.27 in
Snow Depth Not available.
UV 2 out of 12
Pollen 9.60 out of 12
Air Quality Not available.
Flu Activity Not available.
METAR KUNO 291553Z AUTO 18007KT 6SM -RA BR SCT075 OVC100 19/17 A3010 RMK AO2 LTG DSNT S-W SLP185 P0005 T01890172
Pressure 30.08 in
Visibility 6.0 miles
Clouds Scattered Clouds 7500 ft
Overcast 10000 ft
Dew Point 62 °F
Humidity 87%
Rainfall 0.27 in
Snow Depth Not available.
UV 2 out of 12
Pollen 9.60 out of 12
Air Quality Not available.
Flu Activity Not available.
METAR KUNO 291553Z AUTO 18007KT 6SM -RA BR SCT075 OVC100 19/17 A3010 RMK AO2 LTG DSNT S-W SLP185 P0005 T01890172

10-Day Weather Forecast

×

Almanac

Astronomy

Aug. 29, 2015 Rise Set
Actual Time
Civil Twilight
Nautical Twilight
Astronomical Twilight
Moon
Length of Visible Light
Length of Day
Tomorrow will be .
, % of the Moon is Illuminated

Today's Extremes

State Highs State Lows

Community

WunderPhotos

Upload Photos

1,850,715 photos uploaded!

WunderBlogs® & News

Nearby

Air Quality

  Air Quality AQ Index Pollutant
Not available.

Snow Depth

Station Depth Elevation

Earthquake Activity

City Distance Mag. Time & Date
Minimum magnitude displayed is 2.5.

Coastal Water Temperatures

Place Temperature

Stations

Nearby Weather Stations

Station Location Temp. Windchill Dew Point Humidity Wind Precip. Elev Updated Type